sensor_id;sensor_type;location;lat;lon;timestamp;temperature;humidity
16893;DHT22;8563;52.242;9.098;2024-02-16T00:00:58;12.10;99.90
16893;DHT22;8563;52.242;9.098;2024-02-16T00:03:32;12.10;99.90
16893;DHT22;8563;52.242;9.098;2024-02-16T00:06:05;12.00;99.90
16893;DHT22;8563;52.242;9.098;2024-02-16T00:08:38;12.10;99.90
16893;DHT22;8563;52.242;9.098;2024-02-16T00:11:11;12.20;99.90
16893;DHT22;8563;52.242;9.098;2024-02-16T00:13:43;12.20;99.90
16893;DHT22;8563;52.242;9.098;2024-02-16T00:16:15;12.20;99.90
16893;DHT22;8563;52.242;9.098;2024-02-16T00:18:50;12.20;99.90
16893;DHT22;8563;52.242;9.098;2024-02-16T00:21:22;12.20;99.90
16893;DHT22;8563;52.242;9.098;2024-02-16T00:23:55;12.10;99.90
16893;DHT22;8563;52.242;9.098;2024-02-16T00:26:27;12.10;99.90
16893;DHT22;8563;52.242;9.098;2024-02-16T00:28:59;12.20;99.90
16893;DHT22;8563;52.242;9.098;2024-02-16T00:31:32;12.20;99.90
16893;DHT22;8563;52.242;9.098;2024-02-16T00:34:05;12.20;99.90
16893;DHT22;8563;52.242;9.098;2024-02-16T00:36:38;12.10;99.90
16893;DHT22;8563;52.242;9.098;2024-02-16T00:39:10;12.10;99.90
16893;DHT22;8563;52.242;9.098;2024-02-16T00:41:42;12.10;99.90
16893;DHT22;8563;52.242;9.098;2024-02-16T00:44:17;12.00;99.90
16893;DHT22;8563;52.242;9.098;2024-02-16T00:46:49;12.10;99.90
16893;DHT22;8563;52.242;9.098;2024-02-16T00:49:23;12.10;99.90
16893;DHT22;8563;52.242;9.098;2024-02-16T00:51:55;12.10;99.90
16893;DHT22;8563;52.242;9.098;2024-02-16T00:54:28;12.10;99.90
16893;DHT22;8563;52.242;9.098;2024-02-16T00:57:00;12.00;99.90
16893;DHT22;8563;52.242;9.098;2024-02-16T00:59:33;12.00;99.90
16893;DHT22;8563;52.242;9.098;2024-02-16T01:02:06;11.90;99.90
16893;DHT22;8563;52.242;9.098;2024-02-16T01:04:39;11.90;99.90
16893;DHT22;8563;52.242;9.098;2024-02-16T01:07:12;11.80;99.90
16893;DHT22;8563;52.242;9.098;2024-02-16T01:09:44;11.80;99.90
16893;DHT22;8563;52.242;9.098;2024-02-16T01:12:16;11.80;99.90
16893;DHT22;8563;52.242;9.098;2024-02-16T01:14:48;11.80;99.90
16893;DHT22;8563;52.242;9.098;2024-02-16T01:17:21;11.80;99.90
16893;DHT22;8563;52.242;9.098;2024-02-16T01:19:54;11.80;99.90
16893;DHT22;8563;52.242;9.098;2024-02-16T01:22:27;11.80;99.90
16893;DHT22;8563;52.242;9.098;2024-02-16T01:25:00;11.80;99.90
16893;DHT22;8563;52.242;9.098;2024-02-16T01:27:32;11.70;99.90
16893;DHT22;8563;52.242;9.098;2024-02-16T01:30:05;11.70;99.90
16893;DHT22;8563;52.242;9.098;2024-02-16T01:32:38;11.80;99.90
16893;DHT22;8563;52.242;9.098;2024-02-16T01:35:12;11.70;99.90
16893;DHT22;8563;52.242;9.098;2024-02-16T01:37:45;11.70;99.90
16893;DHT22;8563;52.242;9.098;2024-02-16T01:40:18;11.70;99.90
16893;DHT22;8563;52.242;9.098;2024-02-16T01:42:50;11.70;99.90
16893;DHT22;8563;52.242;9.098;2024-02-16T01:45:23;11.60;99.90
16893;DHT22;8563;52.242;9.098;2024-02-16T01:47:56;11.60;99.90
16893;DHT22;8563;52.242;9.098;2024-02-16T01:50:30;11.60;99.90
16893;DHT22;8563;52.242;9.098;2024-02-16T01:53:04;11.60;99.90
16893;DHT22;8563;52.242;9.098;2024-02-16T01:55:37;11.60;99.90
16893;DHT22;8563;52.242;9.098;2024-02-16T01:58:10;11.60;99.90
16893;DHT22;8563;52.242;9.098;2024-02-16T02:00:42;11.60;99.90
16893;DHT22;8563;52.242;9.098;2024-02-16T02:03:15;11.60;99.90
16893;DHT22;8563;52.242;9.098;2024-02-16T02:05:51;11.60;99.90
16893;DHT22;8563;52.242;9.098;2024-02-16T02:08:25;11.60;99.90
16893;DHT22;8563;52.242;9.098;2024-02-16T02:10:58;11.60;99.90
16893;DHT22;8563;52.242;9.098;2024-02-16T02:13:30;11.60;99.90
16893;DHT22;8563;52.242;9.098;2024-02-16T02:16:03;11.70;99.90
16893;DHT22;8563;52.242;9.098;2024-02-16T02:18:36;11.60;99.90
16893;DHT22;8563;52.242;9.098;2024-02-16T02:21:10;11.60;99.90
16893;DHT22;8563;52.242;9.098;2024-02-16T02:23:45;11.60;99.90
16893;DHT22;8563;52.242;9.098;2024-02-16T02:26:18;11.50;99.90
16893;DHT22;8563;52.242;9.098;2024-02-16T02:28:50;11.50;99.90
16893;DHT22;8563;52.242;9.098;2024-02-16T02:31:22;11.50;99.90
16893;DHT22;8563;52.242;9.098;2024-02-16T02:33:55;11.50;99.90
16893;DHT22;8563;52.242;9.098;2024-02-16T02:36:27;11.50;99.90
16893;DHT22;8563;52.242;9.098;2024-02-16T02:39:00;11.50;99.90
16893;DHT22;8563;52.242;9.098;2024-02-16T02:41:33;11.50;99.90
16893;DHT22;8563;52.242;9.098;2024-02-16T02:44:05;11.50;99.90
16893;DHT22;8563;52.242;9.098;2024-02-16T02:46:37;11.50;99.90
16893;DHT22;8563;52.242;9.098;2024-02-16T02:49:10;11.50;99.90
16893;DHT22;8563;52.242;9.098;2024-02-16T02:51:42;11.50;99.90
16893;DHT22;8563;52.242;9.098;2024-02-16T02:54:16;11.50;99.90
16893;DHT22;8563;52.242;9.098;2024-02-16T02:56:48;11.50;99.90
16893;DHT22;8563;52.242;9.098;2024-02-16T02:59:20;11.60;99.90
16893;DHT22;8563;52.242;9.098;2024-02-16T03:01:52;11.60;99.90
16893;DHT22;8563;52.242;9.098;2024-02-16T03:04:25;11.60;99.90
16893;DHT22;8563;52.242;9.098;2024-02-16T03:06:57;11.60;99.90
16893;DHT22;8563;52.242;9.098;2024-02-16T03:09:30;11.60;99.90
16893;DHT22;8563;52.242;9.098;2024-02-16T03:12:04;11.50;99.90
16893;DHT22;8563;52.242;9.098;2024-02-16T03:14:37;11.50;99.90
16893;DHT22;8563;52.242;9.098;2024-02-16T03:17:09;11.50;99.90
16893;DHT22;8563;52.242;9.098;2024-02-16T03:19:41;11.50;99.90
16893;DHT22;8563;52.242;9.098;2024-02-16T03:22:14;11.50;99.90
16893;DHT22;8563;52.242;9.098;2024-02-16T03:24:47;11.50;99.90
16893;DHT22;8563;52.242;9.098;2024-02-16T03:27:20;11.50;99.90
16893;DHT22;8563;52.242;9.098;2024-02-16T03:29:52;11.50;99.90
16893;DHT22;8563;52.242;9.098;2024-02-16T03:32:24;11.50;99.90
16893;DHT22;8563;52.242;9.098;2024-02-16T03:34:57;11.50;99.90
16893;DHT22;8563;52.242;9.098;2024-02-16T03:37:29;11.60;99.90
16893;DHT22;8563;52.242;9.098;2024-02-16T03:40:06;11.60;99.90
16893;DHT22;8563;52.242;9.098;2024-02-16T03:42:40;11.70;99.90
16893;DHT22;8563;52.242;9.098;2024-02-16T03:45:12;11.70;99.90
16893;DHT22;8563;52.242;9.098;2024-02-16T03:47:45;11.70;99.90
16893;DHT22;8563;52.242;9.098;2024-02-16T03:50:19;11.70;99.90
16893;DHT22;8563;52.242;9.098;2024-02-16T03:52:53;11.80;99.90
16893;DHT22;8563;52.242;9.098;2024-02-16T03:55:26;11.80;99.90
16893;DHT22;8563;52.242;9.098;2024-02-16T03:57:59;11.90;99.90
16893;DHT22;8563;52.242;9.098;2024-02-16T04:00:31;11.90;99.90
16893;DHT22;8563;52.242;9.098;2024-02-16T04:03:03;11.90;99.90
16893;DHT22;8563;52.242;9.098;2024-02-16T04:05:38;11.90;99.90
16893;DHT22;8563;52.242;9.098;2024-02-16T04:08:10;11.90;99.90
16893;DHT22;8563;52.242;9.098;2024-02-16T04:10:45;11.90;99.90
16893;DHT22;8563;52.242;9.098;2024-02-16T04:13:17;11.90;99.90
16893;DHT22;8563;52.242;9.098;2024-02-16T04:15:50;11.80;99.90
16893;DHT22;8563;52.242;9.098;2024-02-16T04:18:22;11.80;99.90
16893;DHT22;8563;52.242;9.098;2024-02-16T04:20:54;11.80;99.90
16893;DHT22;8563;52.242;9.098;2024-02-16T04:23:26;11.80;99.90
16893;DHT22;8563;52.242;9.098;2024-02-16T04:26:00;11.80;99.90
16893;DHT22;8563;52.242;9.098;2024-02-16T04:28:32;11.80;99.90
16893;DHT22;8563;52.242;9.098;2024-02-16T04:31:05;11.80;99.90
16893;DHT22;8563;52.242;9.098;2024-02-16T04:33:37;11.90;99.90
16893;DHT22;8563;52.242;9.098;2024-02-16T04:36:09;11.80;99.90
16893;DHT22;8563;52.242;9.098;2024-02-16T04:38:42;11.80;99.90
16893;DHT22;8563;52.242;9.098;2024-02-16T04:41:15;11.80;99.90
16893;DHT22;8563;52.242;9.098;2024-02-16T04:43:48;11.70;99.90
16893;DHT22;8563;52.242;9.098;2024-02-16T04:46:20;11.70;99.90
16893;DHT22;8563;52.242;9.098;2024-02-16T04:48:53;11.70;99.90
16893;DHT22;8563;52.242;9.098;2024-02-16T04:51:25;11.70;99.90
16893;DHT22;8563;52.242;9.098;2024-02-16T04:53:57;11.70;99.90
16893;DHT22;8563;52.242;9.098;2024-02-16T04:56:31;11.70;99.90
16893;DHT22;8563;52.242;9.098;2024-02-16T04:59:03;11.70;99.90
16893;DHT22;8563;52.242;9.098;2024-02-16T05:01:35;11.70;99.90
16893;DHT22;8563;52.242;9.098;2024-02-16T05:04:08;11.70;99.90
16893;DHT22;8563;52.242;9.098;2024-02-16T05:06:40;11.70;99.90
16893;DHT22;8563;52.242;9.098;2024-02-16T05:09:13;11.70;99.90
16893;DHT22;8563;52.242;9.098;2024-02-16T05:11:49;11.70;99.90
16893;DHT22;8563;52.242;9.098;2024-02-16T05:14:22;11.70;99.90
16893;DHT22;8563;52.242;9.098;2024-02-16T05:16:55;11.70;99.90
16893;DHT22;8563;52.242;9.098;2024-02-16T05:19:27;11.70;99.90
16893;DHT22;8563;52.242;9.098;2024-02-16T05:21:59;11.70;99.90
16893;DHT22;8563;52.242;9.098;2024-02-16T05:24:32;11.70;99.90
16893;DHT22;8563;52.242;9.098;2024-02-16T05:27:06;11.70;99.90
16893;DHT22;8563;52.242;9.098;2024-02-16T05:29:38;11.70;99.90
16893;DHT22;8563;52.242;9.098;2024-02-16T05:32:11;11.70;99.90
16893;DHT22;8563;52.242;9.098;2024-02-16T05:34:43;11.60;99.90
16893;DHT22;8563;52.242;9.098;2024-02-16T05:37:15;11.60;99.90
16893;DHT22;8563;52.242;9.098;2024-02-16T05:39:48;11.50;99.90
16893;DHT22;8563;52.242;9.098;2024-02-16T05:42:29;11.50;99.90
16893;DHT22;8563;52.242;9.098;2024-02-16T05:45:01;11.40;99.90
16893;DHT22;8563;52.242;9.098;2024-02-16T05:47:34;11.40;99.90
16893;DHT22;8563;52.242;9.098;2024-02-16T05:50:06;11.40;99.90
16893;DHT22;8563;52.242;9.098;2024-02-16T05:52:39;11.30;99.90
16893;DHT22;8563;52.242;9.098;2024-02-16T05:55:12;11.30;99.90
16893;DHT22;8563;52.242;9.098;2024-02-16T05:57:46;11.30;99.90
16893;DHT22;8563;52.242;9.098;2024-02-16T06:00:18;11.30;99.90
16893;DHT22;8563;52.242;9.098;2024-02-16T06:02:52;11.30;99.90
16893;DHT22;8563;52.242;9.098;2024-02-16T06:05:24;11.40;99.90
16893;DHT22;8563;52.242;9.098;2024-02-16T06:07:56;11.40;99.90
16893;DHT22;8563;52.242;9.098;2024-02-16T06:10:29;11.40;99.90
16893;DHT22;8563;52.242;9.098;2024-02-16T06:13:03;11.40;99.90
16893;DHT22;8563;52.242;9.098;2024-02-16T06:15:37;11.40;99.90
16893;DHT22;8563;52.242;9.098;2024-02-16T06:18:09;11.40;99.90
16893;DHT22;8563;52.242;9.098;2024-02-16T06:20:41;11.40;99.90
16893;DHT22;8563;52.242;9.098;2024-02-16T06:23:14;11.50;99.90
16893;DHT22;8563;52.242;9.098;2024-02-16T06:25:48;11.40;99.90
16893;DHT22;8563;52.242;9.098;2024-02-16T06:28:21;11.40;99.90
16893;DHT22;8563;52.242;9.098;2024-02-16T06:30:54;11.40;99.90
16893;DHT22;8563;52.242;9.098;2024-02-16T06:33:27;11.40;99.90
16893;DHT22;8563;52.242;9.098;2024-02-16T06:35:59;11.30;99.90
16893;DHT22;8563;52.242;9.098;2024-02-16T06:38:31;11.30;99.90
16893;DHT22;8563;52.242;9.098;2024-02-16T06:41:04;11.30;99.90
16893;DHT22;8563;52.242;9.098;2024-02-16T06:43:37;11.30;99.90
16893;DHT22;8563;52.242;9.098;2024-02-16T06:46:10;11.30;99.90
16893;DHT22;8563;52.242;9.098;2024-02-16T06:48:43;11.20;99.90
16893;DHT22;8563;52.242;9.098;2024-02-16T06:51:15;11.20;99.90
16893;DHT22;8563;52.242;9.098;2024-02-16T06:53:48;11.20;99.90
16893;DHT22;8563;52.242;9.098;2024-02-16T06:56:20;11.20;99.90
16893;DHT22;8563;52.242;9.098;2024-02-16T06:58:54;11.20;99.90
16893;DHT22;8563;52.242;9.098;2024-02-16T07:01:26;11.20;99.90
16893;DHT22;8563;52.242;9.098;2024-02-16T07:03:59;11.30;99.90
16893;DHT22;8563;52.242;9.098;2024-02-16T07:06:32;11.30;99.90
16893;DHT22;8563;52.242;9.098;2024-02-16T07:09:05;11.40;99.90
16893;DHT22;8563;52.242;9.098;2024-02-16T07:11:37;11.50;99.90
16893;DHT22;8563;52.242;9.098;2024-02-16T07:14:11;11.60;99.90
16893;DHT22;8563;52.242;9.098;2024-02-16T07:16:43;11.70;99.90
16893;DHT22;8563;52.242;9.098;2024-02-16T07:19:16;11.80;99.90
16893;DHT22;8563;52.242;9.098;2024-02-16T07:21:48;11.90;99.90
16893;DHT22;8563;52.242;9.098;2024-02-16T07:24:20;12.00;99.90
16893;DHT22;8563;52.242;9.098;2024-02-16T07:26:53;12.10;99.90
16893;DHT22;8563;52.242;9.098;2024-02-16T07:29:26;12.30;99.90
16893;DHT22;8563;52.242;9.098;2024-02-16T07:31:59;12.40;99.90
16893;DHT22;8563;52.242;9.098;2024-02-16T07:34:31;12.40;99.90
16893;DHT22;8563;52.242;9.098;2024-02-16T07:37:04;12.50;99.90
16893;DHT22;8563;52.242;9.098;2024-02-16T07:39:36;12.50;99.90
16893;DHT22;8563;52.242;9.098;2024-02-16T07:42:09;12.50;99.90
16893;DHT22;8563;52.242;9.098;2024-02-16T07:44:45;12.50;99.90
16893;DHT22;8563;52.242;9.098;2024-02-16T07:47:17;12.50;99.90
16893;DHT22;8563;52.242;9.098;2024-02-16T07:49:49;12.60;99.90
16893;DHT22;8563;52.242;9.098;2024-02-16T07:52:21;12.70;99.90
16893;DHT22;8563;52.242;9.098;2024-02-16T07:54:54;12.80;99.90
16893;DHT22;8563;52.242;9.098;2024-02-16T07:57:26;12.80;99.90
16893;DHT22;8563;52.242;9.098;2024-02-16T08:00:00;12.80;99.90
16893;DHT22;8563;52.242;9.098;2024-02-16T08:02:35;12.90;99.90
16893;DHT22;8563;52.242;9.098;2024-02-16T08:05:08;12.90;99.90
16893;DHT22;8563;52.242;9.098;2024-02-16T08:07:40;12.90;99.90
16893;DHT22;8563;52.242;9.098;2024-02-16T08:10:13;12.90;99.90
16893;DHT22;8563;52.242;9.098;2024-02-16T08:12:45;12.90;99.90
16893;DHT22;8563;52.242;9.098;2024-02-16T08:15:19;12.80;99.90
16893;DHT22;8563;52.242;9.098;2024-02-16T08:17:54;12.80;99.90
16893;DHT22;8563;52.242;9.098;2024-02-16T08:20:27;12.80;99.90
16893;DHT22;8563;52.242;9.098;2024-02-16T08:22:59;12.90;99.90
16893;DHT22;8563;52.242;9.098;2024-02-16T08:25:31;13.00;99.90
16893;DHT22;8563;52.242;9.098;2024-02-16T08:28:04;13.00;99.90
16893;DHT22;8563;52.242;9.098;2024-02-16T08:30:38;13.10;99.90
16893;DHT22;8563;52.242;9.098;2024-02-16T08:33:12;13.10;99.90
16893;DHT22;8563;52.242;9.098;2024-02-16T08:35:45;13.20;99.90
16893;DHT22;8563;52.242;9.098;2024-02-16T08:38:17;13.20;99.90
16893;DHT22;8563;52.242;9.098;2024-02-16T08:40:49;13.20;99.90
16893;DHT22;8563;52.242;9.098;2024-02-16T08:43:22;13.30;99.90
16893;DHT22;8563;52.242;9.098;2024-02-16T08:45:56;13.30;99.90
16893;DHT22;8563;52.242;9.098;2024-02-16T08:48:28;13.40;99.90
16893;DHT22;8563;52.242;9.098;2024-02-16T08:51:01;13.40;99.90
16893;DHT22;8563;52.242;9.098;2024-02-16T08:53:33;13.40;99.90
16893;DHT22;8563;52.242;9.098;2024-02-16T08:56:09;13.50;99.90
16893;DHT22;8563;52.242;9.098;2024-02-16T08:58:42;13.50;99.90
16893;DHT22;8563;52.242;9.098;2024-02-16T09:01:16;13.60;99.90
16893;DHT22;8563;52.242;9.098;2024-02-16T09:03:49;13.60;99.90
16893;DHT22;8563;52.242;9.098;2024-02-16T09:06:21;13.60;99.90
16893;DHT22;8563;52.242;9.098;2024-02-16T09:08:54;13.60;99.90
16893;DHT22;8563;52.242;9.098;2024-02-16T09:11:26;13.60;99.90
16893;DHT22;8563;52.242;9.098;2024-02-16T09:13:59;13.70;99.90
16893;DHT22;8563;52.242;9.098;2024-02-16T09:16:33;13.70;99.90
16893;DHT22;8563;52.242;9.098;2024-02-16T09:19:05;13.70;99.90
16893;DHT22;8563;52.242;9.098;2024-02-16T09:21:37;13.70;99.90
16893;DHT22;8563;52.242;9.098;2024-02-16T09:24:10;13.70;99.90
16893;DHT22;8563;52.242;9.098;2024-02-16T09:26:48;13.70;99.90
16893;DHT22;8563;52.242;9.098;2024-02-16T09:29:21;13.70;99.90
16893;DHT22;8563;52.242;9.098;2024-02-16T09:31:54;13.80;99.90
16893;DHT22;8563;52.242;9.098;2024-02-16T09:34:27;13.80;99.90
16893;DHT22;8563;52.242;9.098;2024-02-16T09:36:59;13.80;99.90
16893;DHT22;8563;52.242;9.098;2024-02-16T09:39:32;13.80;99.90
16893;DHT22;8563;52.242;9.098;2024-02-16T09:42:05;13.80;99.90
16893;DHT22;8563;52.242;9.098;2024-02-16T09:44:37;14.00;99.90
16893;DHT22;8563;52.242;9.098;2024-02-16T09:47:11;14.00;99.90
16893;DHT22;8563;52.242;9.098;2024-02-16T09:49:45;14.10;99.90
16893;DHT22;8563;52.242;9.098;2024-02-16T09:52:17;14.20;99.90
16893;DHT22;8563;52.242;9.098;2024-02-16T09:54:49;14.30;99.90
16893;DHT22;8563;52.242;9.098;2024-02-16T09:57:21;14.30;99.90
16893;DHT22;8563;52.242;9.098;2024-02-16T09:59:54;14.40;99.90
16893;DHT22;8563;52.242;9.098;2024-02-16T10:02:27;14.50;99.90
16893;DHT22;8563;52.242;9.098;2024-02-16T10:05:00;14.60;99.90
16893;DHT22;8563;52.242;9.098;2024-02-16T10:07:41;14.60;99.90
16893;DHT22;8563;52.242;9.098;2024-02-16T10:10:23;14.50;99.90
16893;DHT22;8563;52.242;9.098;2024-02-16T10:13:01;14.60;99.90
16893;DHT22;8563;52.242;9.098;2024-02-16T10:15:35;14.60;99.90
16893;DHT22;8563;52.242;9.098;2024-02-16T10:18:08;14.60;99.90
16893;DHT22;8563;52.242;9.098;2024-02-16T10:20:41;14.60;99.90
16893;DHT22;8563;52.242;9.098;2024-02-16T10:23:16;14.70;99.90
16893;DHT22;8563;52.242;9.098;2024-02-16T10:25:48;14.80;99.90
16893;DHT22;8563;52.242;9.098;2024-02-16T10:28:21;15.00;99.90
16893;DHT22;8563;52.242;9.098;2024-02-16T10:30:59;15.20;99.90
16893;DHT22;8563;52.242;9.098;2024-02-16T10:33:35;15.20;99.90
16893;DHT22;8563;52.242;9.098;2024-02-16T10:36:08;15.20;99.90
16893;DHT22;8563;52.242;9.098;2024-02-16T10:38:41;15.20;99.90
16893;DHT22;8563;52.242;9.098;2024-02-16T10:41:15;15.10;99.90
16893;DHT22;8563;52.242;9.098;2024-02-16T10:43:48;15.10;99.90
16893;DHT22;8563;52.242;9.098;2024-02-16T10:46:22;15.10;99.90
16893;DHT22;8563;52.242;9.098;2024-02-16T10:48:55;15.20;99.90
16893;DHT22;8563;52.242;9.098;2024-02-16T10:51:30;15.40;99.90
16893;DHT22;8563;52.242;9.098;2024-02-16T10:54:03;15.60;99.90
16893;DHT22;8563;52.242;9.098;2024-02-16T10:56:37;15.70;99.90
16893;DHT22;8563;52.242;9.098;2024-02-16T10:59:10;15.80;99.90
16893;DHT22;8563;52.242;9.098;2024-02-16T11:01:44;16.00;99.90
16893;DHT22;8563;52.242;9.098;2024-02-16T11:04:18;16.10;99.90
16893;DHT22;8563;52.242;9.098;2024-02-16T11:06:53;16.30;99.90
16893;DHT22;8563;52.242;9.098;2024-02-16T11:09:27;16.30;99.90
16893;DHT22;8563;52.242;9.098;2024-02-16T11:12:00;16.20;99.90
16893;DHT22;8563;52.242;9.098;2024-02-16T11:14:37;16.20;99.90
16893;DHT22;8563;52.242;9.098;2024-02-16T11:17:10;16.10;99.90
16893;DHT22;8563;52.242;9.098;2024-02-16T11:19:46;16.20;99.90
16893;DHT22;8563;52.242;9.098;2024-02-16T11:22:19;16.20;99.90
16893;DHT22;8563;52.242;9.098;2024-02-16T11:24:54;16.30;99.90
16893;DHT22;8563;52.242;9.098;2024-02-16T11:27:27;16.20;99.90
16893;DHT22;8563;52.242;9.098;2024-02-16T11:30:06;16.30;99.90
16893;DHT22;8563;52.242;9.098;2024-02-16T11:32:38;16.30;99.90
16893;DHT22;8563;52.242;9.098;2024-02-16T11:35:13;16.40;99.90
16893;DHT22;8563;52.242;9.098;2024-02-16T11:37:47;16.30;99.90
16893;DHT22;8563;52.242;9.098;2024-02-16T11:40:19;16.10;99.90
16893;DHT22;8563;52.242;9.098;2024-02-16T11:42:58;16.10;99.90
16893;DHT22;8563;52.242;9.098;2024-02-16T11:45:34;16.00;99.90
16893;DHT22;8563;52.242;9.098;2024-02-16T11:48:07;16.00;99.90
16893;DHT22;8563;52.242;9.098;2024-02-16T11:50:42;16.00;99.90
16893;DHT22;8563;52.242;9.098;2024-02-16T11:53:19;16.00;99.90
16893;DHT22;8563;52.242;9.098;2024-02-16T11:55:51;15.90;99.90
16893;DHT22;8563;52.242;9.098;2024-02-16T11:58:24;16.00;99.90
16893;DHT22;8563;52.242;9.098;2024-02-16T12:00:56;15.90;99.90
16893;DHT22;8563;52.242;9.098;2024-02-16T12:03:30;15.90;99.90
16893;DHT22;8563;52.242;9.098;2024-02-16T12:06:05;16.00;99.90
16893;DHT22;8563;52.242;9.098;2024-02-16T12:08:39;15.90;99.90
16893;DHT22;8563;52.242;9.098;2024-02-16T12:11:11;15.80;99.90
16893;DHT22;8563;52.242;9.098;2024-02-16T12:13:45;15.80;99.90
16893;DHT22;8563;52.242;9.098;2024-02-16T12:16:19;15.70;99.90
16893;DHT22;8563;52.242;9.098;2024-02-16T12:18:51;15.70;99.90
16893;DHT22;8563;52.242;9.098;2024-02-16T12:21:35;15.70;99.90
16893;DHT22;8563;52.242;9.098;2024-02-16T12:24:07;15.60;99.90
16893;DHT22;8563;52.242;9.098;2024-02-16T12:26:39;15.60;99.90
16893;DHT22;8563;52.242;9.098;2024-02-16T12:29:12;15.50;99.90
16893;DHT22;8563;52.242;9.098;2024-02-16T12:31:45;15.40;99.90
16893;DHT22;8563;52.242;9.098;2024-02-16T12:34:20;15.50;99.90
16893;DHT22;8563;52.242;9.098;2024-02-16T12:36:53;15.50;99.90
16893;DHT22;8563;52.242;9.098;2024-02-16T12:39:26;15.50;99.90
16893;DHT22;8563;52.242;9.098;2024-02-16T12:41:58;15.60;99.90
16893;DHT22;8563;52.242;9.098;2024-02-16T12:44:30;15.60;99.90
16893;DHT22;8563;52.242;9.098;2024-02-16T12:47:02;15.60;99.90
16893;DHT22;8563;52.242;9.098;2024-02-16T12:49:35;15.70;99.90
16893;DHT22;8563;52.242;9.098;2024-02-16T12:52:09;15.60;99.90
16893;DHT22;8563;52.242;9.098;2024-02-16T12:54:41;15.60;99.90
16893;DHT22;8563;52.242;9.098;2024-02-16T12:57:13;15.60;99.90
16893;DHT22;8563;52.242;9.098;2024-02-16T12:59:45;15.60;99.90
16893;DHT22;8563;52.242;9.098;2024-02-16T13:02:18;15.70;99.90
16893;DHT22;8563;52.242;9.098;2024-02-16T13:04:50;15.60;99.90
16893;DHT22;8563;52.242;9.098;2024-02-16T13:07:25;15.70;99.90
16893;DHT22;8563;52.242;9.098;2024-02-16T13:09:57;15.80;99.90
16893;DHT22;8563;52.242;9.098;2024-02-16T13:12:30;15.80;99.90
16893;DHT22;8563;52.242;9.098;2024-02-16T13:15:02;15.80;99.90
16893;DHT22;8563;52.242;9.098;2024-02-16T13:17:36;15.70;99.90
16893;DHT22;8563;52.242;9.098;2024-02-16T13:20:08;15.70;99.90
16893;DHT22;8563;52.242;9.098;2024-02-16T13:22:42;15.70;99.90
16893;DHT22;8563;52.242;9.098;2024-02-16T13:25:15;15.60;99.90
16893;DHT22;8563;52.242;9.098;2024-02-16T13:27:48;15.60;99.90
16893;DHT22;8563;52.242;9.098;2024-02-16T13:30:20;15.60;99.90
16893;DHT22;8563;52.242;9.098;2024-02-16T13:32:53;15.60;99.90
16893;DHT22;8563;52.242;9.098;2024-02-16T13:35:25;15.50;99.90
16893;DHT22;8563;52.242;9.098;2024-02-16T13:38:01;15.50;99.90
16893;DHT22;8563;52.242;9.098;2024-02-16T13:40:33;15.50;99.90
16893;DHT22;8563;52.242;9.098;2024-02-16T13:43:06;15.40;99.90
16893;DHT22;8563;52.242;9.098;2024-02-16T13:45:49;15.40;99.90
16893;DHT22;8563;52.242;9.098;2024-02-16T13:48:22;15.40;99.90
16893;DHT22;8563;52.242;9.098;2024-02-16T13:50:54;15.50;99.90
16893;DHT22;8563;52.242;9.098;2024-02-16T13:53:29;15.40;99.90
16893;DHT22;8563;52.242;9.098;2024-02-16T13:56:05;15.40;99.90
16893;DHT22;8563;52.242;9.098;2024-02-16T13:58:38;15.40;99.90
16893;DHT22;8563;52.242;9.098;2024-02-16T14:01:10;15.30;99.90
16893;DHT22;8563;52.242;9.098;2024-02-16T14:03:43;15.40;99.90
16893;DHT22;8563;52.242;9.098;2024-02-16T14:06:15;15.40;99.90
16893;DHT22;8563;52.242;9.098;2024-02-16T14:08:49;15.40;99.90
16893;DHT22;8563;52.242;9.098;2024-02-16T14:11:23;15.40;99.90
16893;DHT22;8563;52.242;9.098;2024-02-16T14:13:55;15.40;99.90
16893;DHT22;8563;52.242;9.098;2024-02-16T14:16:28;15.50;99.90
16893;DHT22;8563;52.242;9.098;2024-02-16T14:19:00;15.50;99.90
16893;DHT22;8563;52.242;9.098;2024-02-16T14:21:33;15.50;99.90
16893;DHT22;8563;52.242;9.098;2024-02-16T14:24:07;15.50;99.90
16893;DHT22;8563;52.242;9.098;2024-02-16T14:26:41;15.50;99.90
16893;DHT22;8563;52.242;9.098;2024-02-16T14:29:13;15.40;99.90
16893;DHT22;8563;52.242;9.098;2024-02-16T14:31:46;15.30;99.90
16893;DHT22;8563;52.242;9.098;2024-02-16T14:34:20;15.40;99.90
16893;DHT22;8563;52.242;9.098;2024-02-16T14:36:52;15.30;99.90
16893;DHT22;8563;52.242;9.098;2024-02-16T14:39:26;15.20;99.90
16893;DHT22;8563;52.242;9.098;2024-02-16T14:41:58;15.10;99.90
16893;DHT22;8563;52.242;9.098;2024-02-16T14:44:30;15.10;99.90
16893;DHT22;8563;52.242;9.098;2024-02-16T14:47:03;15.00;99.90
16893;DHT22;8563;52.242;9.098;2024-02-16T14:49:35;15.00;99.90
16893;DHT22;8563;52.242;9.098;2024-02-16T14:52:07;14.90;99.90
16893;DHT22;8563;52.242;9.098;2024-02-16T14:54:42;14.90;99.90
16893;DHT22;8563;52.242;9.098;2024-02-16T14:57:14;14.90;99.90
16893;DHT22;8563;52.242;9.098;2024-02-16T14:59:51;14.90;99.90
16893;DHT22;8563;52.242;9.098;2024-02-16T15:02:26;14.90;99.90
16893;DHT22;8563;52.242;9.098;2024-02-16T15:04:58;14.90;99.90
16893;DHT22;8563;52.242;9.098;2024-02-16T15:07:31;14.80;99.90
16893;DHT22;8563;52.242;9.098;2024-02-16T15:10:05;14.70;99.90
16893;DHT22;8563;52.242;9.098;2024-02-16T15:12:38;14.60;99.90
16893;DHT22;8563;52.242;9.098;2024-02-16T15:15:11;14.60;99.90
16893;DHT22;8563;52.242;9.098;2024-02-16T15:17:43;14.60;99.90
16893;DHT22;8563;52.242;9.098;2024-02-16T15:20:15;14.60;99.90
16893;DHT22;8563;52.242;9.098;2024-02-16T15:22:48;14.40;99.90
16893;DHT22;8563;52.242;9.098;2024-02-16T15:25:22;14.20;99.90
16893;DHT22;8563;52.242;9.098;2024-02-16T15:27:55;14.20;99.90
16893;DHT22;8563;52.242;9.098;2024-02-16T15:30:29;14.10;99.90
16893;DHT22;8563;52.242;9.098;2024-02-16T15:33:02;14.10;99.90
16893;DHT22;8563;52.242;9.098;2024-02-16T15:35:35;14.00;99.90
16893;DHT22;8563;52.242;9.098;2024-02-16T15:38:08;13.90;99.90
16893;DHT22;8563;52.242;9.098;2024-02-16T15:40:42;13.80;99.90
16893;DHT22;8563;52.242;9.098;2024-02-16T15:43:14;13.70;99.90
16893;DHT22;8563;52.242;9.098;2024-02-16T15:45:46;13.70;99.90
16893;DHT22;8563;52.242;9.098;2024-02-16T15:48:20;13.70;99.90
16893;DHT22;8563;52.242;9.098;2024-02-16T15:50:52;13.70;99.90
16893;DHT22;8563;52.242;9.098;2024-02-16T15:53:25;13.70;99.90
16893;DHT22;8563;52.242;9.098;2024-02-16T15:55:59;13.70;99.90
16893;DHT22;8563;52.242;9.098;2024-02-16T15:58:34;13.70;99.90
16893;DHT22;8563;52.242;9.098;2024-02-16T16:01:06;13.70;99.90
16893;DHT22;8563;52.242;9.098;2024-02-16T16:03:38;13.70;99.90
16893;DHT22;8563;52.242;9.098;2024-02-16T16:06:10;13.60;99.90
16893;DHT22;8563;52.242;9.098;2024-02-16T16:08:44;13.70;99.90
16893;DHT22;8563;52.242;9.098;2024-02-16T16:11:17;13.70;99.90
16893;DHT22;8563;52.242;9.098;2024-02-16T16:13:50;13.60;99.90
16893;DHT22;8563;52.242;9.098;2024-02-16T16:16:22;13.60;99.90
16893;DHT22;8563;52.242;9.098;2024-02-16T16:18:55;13.50;99.90
16893;DHT22;8563;52.242;9.098;2024-02-16T16:21:27;13.50;99.90